Terminal Aerodrome Forecast
Issued by NWS Central Illinois

Current Version | Previous Version | Text Only | Print | Product List | Glossary On
Versions: 1 2 3 4 5 6 7 8 9 10 11 12 13 14 15 16 17
471
FTUS43 KILX 051740 AAA
TAFPIA
TAF AMD
KPIA 051740Z 0518/0618 18009KT P6SM OVC009
     FM060300 14006KT 1/2SM FG OVC003
     FM061200 18004KT 1/2SM FG OVC003
     FM061400 29007KT 1SM BR OVC007
     FM061600 31009KT 4SM BR BKN015=

USA.gov is the U.S. government's official web portal to all federal, state and local government web resources and services.